Time;durP1;ratioP1;P1;durP2;ratioP2;P2;SDS_P1;SDS_P2;PMS_P1;PMS_P2;Temp;Humidity;BMP_temperature;BMP_pressure;BME280_temperature;BME280_humidity;BME280_pressure;Samples;Min_cycle;Max_cycle;Signal;HPM_P1;HPM_P2
2023/07/23 00:00:17;;;;;;;4.33;3.23;;;18.60;99.90;;;;;;5095048;28;20511;-69
2023/07/23 00:02:43;;;;;;;3.50;2.63;;;18.60;99.90;;;;;;5094738;28;20393;-68
2023/07/23 00:05:08;;;;;;;4.20;2.57;;;18.60;99.90;;;;;;5094651;28;20184;-69
2023/07/23 00:07:34;;;;;;;3.07;2.63;;;18.50;99.90;;;;;;5094814;28;20672;-69
2023/07/23 00:09:59;;;;;;;4.03;3.67;;;18.40;99.90;;;;;;5094709;28;20288;-68
2023/07/23 00:12:25;;;;;;;3.20;2.80;;;18.40;99.90;;;;;;5094625;28;20677;-68
2023/07/23 00:14:50;;;;;;;4.80;3.30;;;18.40;99.90;;;;;;5094481;28;20184;-68
2023/07/23 00:17:16;;;;;;;4.50;2.80;;;18.40;99.90;;;;;;5093140;28;20585;-69
2023/07/23 00:19:41;;;;;;;4.57;3.13;;;18.30;99.90;;;;;;5094284;28;20686;-69
2023/07/23 00:22:07;;;;;;;4.73;3.00;;;18.20;99.90;;;;;;5094497;28;20254;-69
2023/07/23 00:24:32;;;;;;;3.67;3.20;;;18.20;99.90;;;;;;5094475;28;20218;-69
2023/07/23 00:26:58;;;;;;;5.37;3.20;;;18.20;99.90;;;;;;5094164;28;20222;-70
2023/07/23 00:29:23;;;;;;;5.80;3.90;;;18.10;99.90;;;;;;5094418;28;20185;-69
2023/07/23 00:31:49;;;;;;;4.00;3.70;;;18.10;99.90;;;;;;5094287;28;20212;-69
2023/07/23 00:34:14;;;;;;;5.80;3.40;;;18.00;99.90;;;;;;5094375;28;20165;-69
2023/07/23 00:36:40;;;;;;;5.30;3.50;;;18.00;99.90;;;;;;5094085;28;20215;-69
2023/07/23 00:39:05;;;;;;;6.93;3.10;;;18.00;99.90;;;;;;5094144;28;20181;-69
2023/07/23 00:41:31;;;;;;;3.90;2.30;;;18.00;99.90;;;;;;5094257;28;20174;-69
2023/07/23 00:43:57;;;;;;;5.10;3.03;;;18.00;99.90;;;;;;5094114;28;20165;-69
2023/07/23 00:46:23;;;;;;;3.27;2.70;;;17.90;99.90;;;;;;5093897;28;20907;-69
2023/07/23 00:48:49;;;;;;;3.63;3.20;;;18.00;99.90;;;;;;5094016;28;20539;-69
2023/07/23 00:51:15;;;;;;;8.37;3.37;;;18.00;99.90;;;;;;5093951;28;20477;-69
2023/07/23 00:53:41;;;;;;;4.20;3.10;;;18.00;99.90;;;;;;5094144;28;20165;-69
2023/07/23 00:56:07;;;;;;;4.23;3.37;;;18.00;99.90;;;;;;5093587;28;20448;-69
2023/07/23 00:58:33;;;;;;;4.43;3.30;;;17.90;99.90;;;;;;5092457;28;20470;-69
2023/07/23 01:00:59;;;;;;;5.90;3.20;;;18.00;99.90;;;;;;5093821;28;20258;-69
2023/07/23 01:03:24;;;;;;;4.10;3.37;;;17.90;99.90;;;;;;5093721;28;20439;-69
2023/07/23 01:05:52;;;;;;;4.20;2.67;;;18.00;99.90;;;;;;5093470;28;20534;-69
2023/07/23 01:08:19;;;;;;;6.70;3.30;;;18.00;99.90;;;;;;5093396;28;20211;-69
2023/07/23 01:10:45;;;;;;;4.77;3.63;;;18.00;99.90;;;;;;5093401;28;20447;-69
2023/07/23 01:13:11;;;;;;;6.60;2.77;;;18.00;99.90;;;;;;5092982;28;20412;-68
2023/07/23 01:15:37;;;;;;;6.20;3.53;;;18.00;99.90;;;;;;5093309;28;20184;-69
2023/07/23 01:18:04;;;;;;;4.63;3.27;;;18.10;99.90;;;;;;5093378;28;20166;-70
2023/07/23 01:20:29;;;;;;;3.07;2.87;;;18.10;99.90;;;;;;5093351;28;20172;-68
2023/07/23 01:22:55;;;;;;;4.20;3.50;;;18.10;99.90;;;;;;5092932;28;20400;-69
2023/07/23 01:25:20;;;;;;;5.10;3.33;;;18.10;99.90;;;;;;5092986;28;20157;-69
2023/07/23 01:27:46;;;;;;;4.23;3.63;;;18.10;99.90;;;;;;5093224;28;20626;-69
2023/07/23 01:30:11;;;;;;;4.63;3.40;;;18.10;99.90;;;;;;5093196;28;20181;-69
2023/07/23 01:32:38;;;;;;;3.67;2.87;;;18.10;99.90;;;;;;5093150;28;20208;-69
2023/07/23 01:35:09;;;;;;;4.27;3.27;;;18.10;99.90;;;;;;5092855;28;20185;-69
2023/07/23 01:37:35;;;;;;;2.40;2.20;;;18.10;99.90;;;;;;5093198;28;20396;-69
2023/07/23 01:40:00;;;;;;;4.37;3.60;;;18.00;99.90;;;;;;5092919;28;20480;-69
2023/07/23 01:42:26;;;;;;;3.80;3.30;;;18.00;99.90;;;;;;5093096;28;20403;-68
2023/07/23 01:44:52;;;;;;;6.97;3.17;;;18.00;99.90;;;;;;5092872;28;20257;-69
2023/07/23 01:47:17;;;;;;;4.47;3.20;;;17.90;99.90;;;;;;5092759;28;20490;-68
2023/07/23 01:49:43;;;;;;;5.07;3.27;;;17.90;99.90;;;;;;5092711;28;20607;-69
2023/07/23 01:52:08;;;;;;;4.67;3.50;;;17.90;99.90;;;;;;5092763;28;20193;-69
2023/07/23 01:54:34;;;;;;;4.90;3.80;;;17.90;99.90;;;;;;5092679;28;20158;-69
2023/07/23 01:57:01;;;;;;;6.07;3.10;;;17.90;99.90;;;;;;5092495;28;20165;-69
2023/07/23 01:59:27;;;;;;;5.00;3.30;;;17.90;99.90;;;;;;5092639;28;20194;-69
2023/07/23 02:01:52;;;;;;;4.43;3.50;;;17.90;99.90;;;;;;5092695;28;20903;-68
2023/07/23 02:04:18;;;;;;;4.30;2.93;;;17.90;99.90;;;;;;5092579;28;20181;-69
2023/07/23 02:06:43;;;;;;;3.20;2.77;;;17.90;99.90;;;;;;5092322;28;20226;-69
2023/07/23 02:09:09;;;;;;;3.50;2.70;;;17.90;99.90;;;;;;5092454;28;20201;-68
2023/07/23 02:11:34;;;;;;;4.07;3.20;;;17.90;99.90;;;;;;5092414;28;20197;-68
2023/07/23 02:14:00;;;;;;;6.57;3.23;;;18.00;99.90;;;;;;5092556;28;20668;-69
2023/07/23 02:16:25;;;;;;;3.10;2.80;;;18.00;99.90;;;;;;5092164;28;20219;-69
2023/07/23 02:18:51;;;;;;;4.60;3.07;;;18.00;99.90;;;;;;5092370;28;20261;-68
2023/07/23 02:21:16;;;;;;;4.87;3.53;;;18.00;99.90;;;;;;5090951;28;20177;-69
2023/07/23 02:23:43;;;;;;;4.43;3.07;;;17.90;99.90;;;;;;5092361;28;20181;-69
2023/07/23 02:26:09;;;;;;;4.00;3.50;;;17.90;99.90;;;;;;5091116;28;20222;-69
2023/07/23 02:28:34;;;;;;;3.83;2.93;;;17.90;99.90;;;;;;5092255;28;20523;-69
2023/07/23 02:31:00;;;;;;;5.00;3.33;;;17.90;99.90;;;;;;5092184;28;20275;-69
2023/07/23 02:33:26;;;;;;;6.23;3.03;;;17.90;99.90;;;;;;5092287;28;20622;-69
2023/07/23 02:35:52;;;;;;;7.53;3.47;;;18.00;99.90;;;;;;5091933;28;20638;-69
2023/07/23 02:38:17;;;;;;;3.87;3.30;;;18.00;99.90;;;;;;5092076;28;20473;-69
2023/07/23 02:40:43;;;;;;;3.70;2.77;;;18.10;99.90;;;;;;5092097;28;20168;-69
2023/07/23 02:43:12;;;;;;;4.27;3.03;;;18.10;99.90;;;;;;5092140;28;20630;-69
2023/07/23 02:45:38;;;;;;;3.93;3.50;;;18.20;99.90;;;;;;5091776;28;20164;-69
2023/07/23 02:48:03;;;;;;;4.40;3.17;;;18.20;99.90;;;;;;5091981;28;20415;-69
2023/07/23 02:50:29;;;;;;;5.50;3.73;;;18.20;99.90;;;;;;5092094;28;20764;-68
2023/07/23 02:52:54;;;;;;;5.23;3.60;;;18.30;99.90;;;;;;5091965;28;20164;-69
2023/07/23 02:55:22;;;;;;;3.77;3.10;;;18.30;99.90;;;;;;5091803;28;20158;-69
2023/07/23 02:57:49;;;;;;;7.73;4.47;;;18.30;99.90;;;;;;5091834;28;20162;-69
2023/07/23 03:00:15;;;;;;;3.73;3.40;;;18.30;99.90;;;;;;5091862;28;20439;-69
2023/07/23 03:02:40;;;;;;;5.13;3.90;;;18.30;99.90;;;;;;5091700;28;20439;-69
2023/07/23 03:05:07;;;;;;;5.60;3.37;;;18.30;99.90;;;;;;5091665;28;20607;-69
2023/07/23 03:07:34;;;;;;;6.40;3.83;;;18.40;99.90;;;;;;5091600;28;20185;-69
2023/07/23 03:09:59;;;;;;;4.40;3.03;;;18.40;99.90;;;;;;5091779;28;20809;-69
2023/07/23 03:12:24;;;;;;;4.40;3.27;;;18.40;99.90;;;;;;5091729;28;20451;-69
2023/07/23 03:14:50;;;;;;;4.13;3.30;;;18.40;99.90;;;;;;5091881;28;20210;-71
2023/07/23 03:17:15;;;;;;;5.13;3.77;;;18.40;99.90;;;;;;5091509;28;20249;-69
2023/07/23 03:19:41;;;;;;;3.37;3.07;;;18.50;99.90;;;;;;5091714;28;20189;-70
2023/07/23 03:22:07;;;;;;;3.90;2.90;;;18.50;99.90;;;;;;5091683;28;20177;-68
2023/07/23 03:24:32;;;;;;;6.17;3.17;;;18.50;99.90;;;;;;5091765;28;20170;-70
2023/07/23 03:26:58;;;;;;;4.10;3.37;;;18.60;99.90;;;;;;5091334;28;20631;-69
2023/07/23 03:29:23;;;;;;;4.20;3.17;;;18.70;99.90;;;;;;5091565;28;20701;-69
2023/07/23 03:31:49;;;;;;;3.23;2.87;;;18.70;99.90;;;;;;5091532;28;20698;-69
2023/07/23 03:34:14;;;;;;;3.00;2.70;;;18.70;99.90;;;;;;5091696;28;20166;-68
2023/07/23 03:36:40;;;;;;;4.33;2.80;;;18.70;99.90;;;;;;5092502;28;20186;-69
2023/07/23 03:39:05;;;;;;;4.70;3.00;;;18.70;99.90;;;;;;5095383;28;20260;-68
2023/07/23 03:41:31;;;;;;;3.43;2.80;;;18.70;99.90;;;;;;5095427;28;20219;-69
2023/07/23 03:43:56;;;;;;;4.73;2.90;;;18.70;99.90;;;;;;5095268;28;20575;-69
2023/07/23 03:46:22;;;;;;;3.17;2.87;;;18.60;99.90;;;;;;5094986;28;20602;-69
2023/07/23 03:48:47;;;;;;;8.20;2.83;;;18.60;99.90;;;;;;5095114;28;20186;-69
2023/07/23 03:51:15;;;;;;;3.70;3.13;;;18.60;99.90;;;;;;5095121;28;20232;-69
2023/07/23 03:53:41;;;;;;;3.80;2.87;;;18.60;99.90;;;;;;5095073;28;20160;-69
2023/07/23 03:56:06;;;;;;;10.90;8.03;;;18.60;99.90;;;;;;5094810;28;20904;-69
2023/07/23 03:58:32;;;;;;;5.00;3.80;;;18.60;99.90;;;;;;5094938;28;20193;-68
2023/07/23 04:00:57;;;;;;;4.27;2.90;;;18.60;99.90;;;;;;5095015;28;20540;-69
2023/07/23 04:03:23;;;;;;;3.07;2.73;;;18.60;99.90;;;;;;5094875;28;20185;-70
2023/07/23 04:05:48;;;;;;;10.70;3.10;;;18.60;99.90;;;;;;5094655;28;20177;-68
2023/07/23 04:08:14;;;;;;;4.00;3.30;;;18.60;99.90;;;;;;5094657;28;20212;-69
2023/07/23 04:10:39;;;;;;;3.83;2.67;;;18.60;99.90;;;;;;5094679;28;20170;-68
2023/07/23 04:13:05;;;;;;;4.40;3.10;;;18.60;99.90;;;;;;5094736;28;20530;-68
2023/07/23 04:15:35;;;;;;;3.60;3.13;;;18.70;99.90;;;;;;5094460;28;20166;-69
2023/07/23 04:18:00;;;;;;;7.70;5.93;;;18.70;99.90;;;;;;5094499;28;20173;-69
2023/07/23 04:20:26;;;;;;;4.80;4.03;;;18.70;99.90;;;;;;5094559;28;20769;-69
2023/07/23 04:22:51;;;;;;;3.93;3.53;;;18.70;99.90;;;;;;5094429;28;20185;-69
2023/07/23 04:25:17;;;;;;;3.17;2.60;;;18.70;99.90;;;;;;5094190;28;20180;-69
2023/07/23 04:27:43;;;;;;;4.23;2.97;;;18.80;99.90;;;;;;5094631;28;20256;-69
2023/07/23 04:30:08;;;;;;;3.10;2.37;;;18.80;99.90;;;;;;5094328;28;20239;-69
2023/07/23 04:32:34;;;;;;;5.67;3.73;;;18.80;99.90;;;;;;5092991;28;20197;-69
2023/07/23 04:34:59;;;;;;;3.77;2.80;;;18.80;99.90;;;;;;5094051;28;20404;-69
2023/07/23 04:37:25;;;;;;;5.57;2.60;;;18.80;99.90;;;;;;5094607;28;20518;-70
2023/07/23 04:39:50;;;;;;;3.53;3.00;;;18.80;99.90;;;;;;5094226;28;20189;-70
2023/07/23 04:42:16;;;;;;;5.83;3.37;;;18.80;99.90;;;;;;5094288;28;20215;-69
2023/07/23 04:44:42;;;;;;;6.30;2.87;;;18.80;99.90;;;;;;5094128;28;20193;-70
2023/07/23 04:47:07;;;;;;;3.33;3.03;;;18.80;99.90;;;;;;5093909;28;20214;-69
2023/07/23 04:49:33;;;;;;;3.20;2.90;;;18.80;99.90;;;;;;5093056;28;20573;-70
2023/07/23 04:51:58;;;;;;;4.30;2.80;;;18.80;99.90;;;;;;5093897;28;20258;-69
2023/07/23 04:54:24;;;;;;;3.03;2.40;;;18.90;99.90;;;;;;5093752;28;20165;-69
2023/07/23 04:56:49;;;;;;;4.00;2.50;;;18.90;99.90;;;;;;5093709;28;20169;-69
2023/07/23 04:59:15;;;;;;;3.20;2.83;;;18.90;99.90;;;;;;5093875;28;20197;-69
2023/07/23 05:01:41;;;;;;;4.87;2.50;;;19.00;99.90;;;;;;5093774;28;20260;-69
2023/07/23 05:04:06;;;;;;;7.63;2.80;;;19.00;99.90;;;;;;5093835;28;20852;-69
2023/07/23 05:06:32;;;;;;;3.43;2.47;;;19.20;99.90;;;;;;5093408;28;20511;-69
2023/07/23 05:08:57;;;;;;;2.70;2.10;;;19.10;99.90;;;;;;5093594;28;20201;-69
2023/07/23 05:11:23;;;;;;;2.90;2.60;;;19.10;99.90;;;;;;5092182;28;20193;-69
2023/07/23 05:13:48;;;;;;;9.53;4.30;;;19.20;99.90;;;;;;5093612;28;20215;-68
2023/07/23 05:16:14;;;;;;;4.77;3.67;;;19.30;99.90;;;;;;5093244;28;20166;-70
2023/07/23 05:18:39;;;;;;;2.93;2.63;;;19.30;99.90;;;;;;5093506;28;20182;-69
2023/07/23 05:21:05;;;;;;;8.07;2.93;;;19.40;99.90;;;;;;5093311;28;20226;-70
2023/07/23 05:23:31;;;;;;;3.40;2.47;;;19.40;99.90;;;;;;5093482;28;20642;-70
2023/07/23 05:25:57;;;;;;;5.00;2.63;;;19.50;99.90;;;;;;5093072;28;20161;-68
2023/07/23 05:28:22;;;;;;;5.80;2.70;;;19.50;99.90;;;;;;5093275;28;20475;-69
2023/07/23 05:30:48;;;;;;;5.03;2.57;;;19.60;99.90;;;;;;5093162;28;20166;-69
2023/07/23 05:33:13;;;;;;;3.10;2.77;;;19.60;99.90;;;;;;5093328;28;20165;-69
2023/07/23 05:35:39;;;;;;;8.00;2.90;;;19.70;99.90;;;;;;5091545;28;20170;-69
2023/07/23 05:38:04;;;;;;;2.83;2.30;;;19.70;99.90;;;;;;5093137;28;20197;-69
2023/07/23 05:40:35;;;;;;;3.70;3.20;;;19.90;99.90;;;;;;5093134;28;20184;-69
2023/07/23 05:43:05;;;;;;;4.00;2.90;;;20.00;99.90;;;;;;5093105;28;20222;-69
2023/07/23 05:45:30;;;;;;;4.97;3.20;;;20.10;99.90;;;;;;5092686;28;20491;-69
2023/07/23 05:47:56;;;;;;;2.43;2.23;;;20.10;99.90;;;;;;5091589;28;20490;-69
2023/07/23 05:50:21;;;;;;;3.50;2.30;;;20.10;99.90;;;;;;5091617;28;20541;-70
2023/07/23 05:52:47;;;;;;;3.37;2.67;;;20.20;99.90;;;;;;5092754;28;20203;-70
2023/07/23 05:55:12;;;;;;;7.53;2.80;;;20.20;99.90;;;;;;5092588;28;20178;-69
2023/07/23 05:57:38;;;;;;;8.40;2.37;;;20.20;99.90;;;;;;5092697;28;20173;-69
2023/07/23 06:00:04;;;;;;;5.97;4.23;;;20.30;99.90;;;;;;5091219;28;20197;-69
2023/07/23 06:02:30;;;;;;;3.60;2.40;;;20.40;99.90;;;;;;5092669;28;20191;-69
2023/07/23 06:04:55;;;;;;;4.80;2.87;;;20.40;99.90;;;;;;5091169;28;20411;-69
2023/07/23 06:07:21;;;;;;;3.03;2.40;;;20.50;99.90;;;;;;5092474;28;20249;-69
2023/07/23 06:09:46;;;;;;;2.57;1.90;;;20.50;99.90;;;;;;5092490;28;20227;-69
2023/07/23 06:12:12;;;;;;;4.83;2.13;;;20.60;99.90;;;;;;5092030;28;20602;-69
2023/07/23 06:14:37;;;;;;;2.90;2.30;;;20.60;99.90;;;;;;5092445;28;20170;-69
2023/07/23 06:17:03;;;;;;;7.00;2.30;;;20.70;99.90;;;;;;5092155;28;20775;-70
2023/07/23 06:19:29;;;;;;;3.03;2.10;;;20.70;99.90;;;;;;5092331;28;20669;-69
2023/07/23 06:21:54;;;;;;;2.43;2.23;;;20.70;99.90;;;;;;5092382;28;20235;-69
2023/07/23 06:24:20;;;;;;;2.87;2.57;;;20.70;99.90;;;;;;5092175;28;20176;-69
2023/07/23 06:26:45;;;;;;;3.10;2.10;;;20.60;99.90;;;;;;5092053;28;20174;-69
2023/07/23 06:29:11;;;;;;;2.43;2.10;;;20.60;99.90;;;;;;5092175;28;20247;-69
2023/07/23 06:31:36;;;;;;;2.37;2.17;;;20.50;99.90;;;;;;5092194;28;20201;-69
2023/07/23 06:34:02;;;;;;;2.23;2.03;;;20.50;99.90;;;;;;5092199;28;20164;-69
2023/07/23 06:36:27;;;;;;;3.10;2.37;;;20.60;99.90;;;;;;5091955;28;20202;-69
2023/07/23 06:38:53;;;;;;;2.83;2.47;;;20.60;99.90;;;;;;5092067;28;20625;-69
2023/07/23 06:41:18;;;;;;;2.50;1.97;;;20.60;99.90;;;;;;5092222;28;20161;-69
2023/07/23 06:43:44;;;;;;;2.63;2.40;;;20.50;99.90;;;;;;5092023;28;20166;-70
2023/07/23 06:46:16;;;;;;;5.03;2.13;;;20.50;99.90;;;;;;5091871;28;20181;-70
2023/07/23 06:48:42;;;;;;;2.07;1.87;;;20.60;99.90;;;;;;5091991;28;20200;-69
2023/07/23 06:51:07;;;;;;;4.60;2.10;;;20.60;99.90;;;;;;5090787;28;20979;-70
2023/07/23 06:53:33;;;;;;;3.87;2.23;;;20.70;99.90;;;;;;5091783;28;20177;-69
2023/07/23 06:56:06;;;;;;;3.87;2.20;;;20.80;99.90;;;;;;5091758;28;20157;-68
2023/07/23 06:58:34;;;;;;;2.40;2.03;;;20.80;99.90;;;;;;5091795;28;20182;-69
2023/07/23 07:01:00;;;;;;;3.17;2.00;;;20.70;99.90;;;;;;5091926;28;20404;-69
2023/07/23 07:03:26;;;;;;;3.13;2.83;;;20.50;99.90;;;;;;5091827;28;20415;-69
2023/07/23 07:05:51;;;;;;;3.57;2.00;;;20.60;99.90;;;;;;5090369;28;20916;-69
2023/07/23 07:08:17;;;;;;;2.63;2.13;;;20.50;99.90;;;;;;5091753;28;20208;-70
2023/07/23 07:10:42;;;;;;;2.60;1.87;;;20.50;99.90;;;;;;5091701;28;20177;-70
2023/07/23 07:13:08;;;;;;;2.40;2.10;;;20.60;99.90;;;;;;5095325;28;20193;-70
2023/07/23 07:15:33;;;;;;;3.43;1.97;;;20.60;99.90;;;;;;5095751;28;20642;-70
2023/07/23 07:17:59;;;;;;;2.50;2.17;;;20.60;99.90;;;;;;5094612;28;20599;-70
2023/07/23 07:20:25;;;;;;;7.43;2.13;;;20.70;99.90;;;;;;5095945;28;20783;-70
2023/07/23 07:22:50;;;;;;;3.30;3.00;;;20.70;99.90;;;;;;5095941;28;20243;-70
2023/07/23 07:25:16;;;;;;;2.50;2.07;;;20.80;99.90;;;;;;5095662;28;20248;-69
2023/07/23 07:27:41;;;;;;;2.27;1.70;;;20.80;99.90;;;;;;5095943;28;20184;-70
2023/07/23 07:30:07;;;;;;;2.80;2.40;;;20.70;99.90;;;;;;5095740;28;20242;-70
2023/07/23 07:32:33;;;;;;;4.60;1.93;;;20.70;99.90;;;;;;5095812;28;20197;-70
2023/07/23 07:34:58;;;;;;;2.43;2.13;;;20.90;99.90;;;;;;5095542;28;20403;-70
2023/07/23 07:37:24;;;;;;;3.93;2.30;;;20.90;99.90;;;;;;5094505;28;20162;-71
2023/07/23 07:39:50;;;;;;;2.80;1.97;;;20.90;99.90;;;;;;5095602;28;20188;-69
2023/07/23 07:42:15;;;;;;;2.30;1.87;;;20.80;99.90;;;;;;5095774;28;20792;-71
2023/07/23 07:44:41;;;;;;;2.77;2.53;;;20.80;99.90;;;;;;5095670;28;20166;-70
2023/07/23 07:47:06;;;;;;;2.00;1.80;;;20.70;99.90;;;;;;5095230;28;20173;-70
2023/07/23 07:49:32;;;;;;;2.43;2.17;;;20.70;99.90;;;;;;5093990;28;20212;-70
2023/07/23 07:51:57;;;;;;;2.90;2.03;;;20.60;99.90;;;;;;5095410;28;20239;-71
2023/07/23 07:54:23;;;;;;;1.80;1.63;;;20.60;99.90;;;;;;5095214;28;20162;-70
2023/07/23 07:56:49;;;;;;;2.30;2.07;;;20.70;99.90;;;;;;5095248;28;20185;-70
2023/07/23 07:59:15;;;;;;;2.37;2.17;;;20.80;99.90;;;;;;5095200;28;20185;-70
2023/07/23 08:01:41;;;;;;;3.40;2.23;;;20.90;99.90;;;;;;5095095;28;20411;-70
2023/07/23 08:04:09;;;;;;;2.33;2.13;;;20.90;99.90;;;;;;5095225;28;20196;-69
2023/07/23 08:06:37;;;;;;;4.40;2.13;;;20.90;99.90;;;;;;5094916;28;20586;-70
2023/07/23 08:09:03;;;;;;;2.63;1.83;;;20.90;99.90;;;;;;5094896;28;20895;-69
2023/07/23 08:11:30;;;;;;;6.20;2.50;;;20.80;99.90;;;;;;5095041;28;21019;-69
2023/07/23 08:13:56;;;;;;;2.30;2.03;;;20.80;99.90;;;;;;5095369;28;20400;-70
2023/07/23 08:16:21;;;;;;;2.60;2.10;;;20.50;99.90;;;;;;5094577;28;20406;-70
2023/07/23 08:18:47;;;;;;;3.07;2.10;;;20.40;99.90;;;;;;5095269;28;20419;-69
2023/07/23 08:21:13;;;;;;;2.53;1.93;;;20.30;99.90;;;;;;5094792;28;20182;-71
2023/07/23 08:23:39;;;;;;;2.60;2.37;;;20.20;99.90;;;;;;5093983;28;20168;-69
2023/07/23 08:26:06;;;;;;;2.37;2.10;;;20.10;99.90;;;;;;5094779;28;20412;-69
2023/07/23 08:28:37;;;;;;;3.10;2.03;;;19.90;99.90;;;;;;5095065;28;20430;-70
2023/07/23 08:31:03;;;;;;;2.57;2.33;;;19.90;99.90;;;;;;5094731;28;20447;-70
2023/07/23 08:33:30;;;;;;;2.37;1.97;;;19.90;99.90;;;;;;5094662;28;20490;-71
2023/07/23 08:35:57;;;;;;;2.23;1.80;;;19.90;99.90;;;;;;5094519;28;20248;-70
2023/07/23 08:38:26;;;;;;;2.43;2.03;;;20.00;99.90;;;;;;5095460;28;20462;-70
2023/07/23 08:41:03;;;;;;;2.20;2.00;;;20.10;99.90;;;;;;5095382;28;20404;-70
2023/07/23 08:43:48;;;;;;;2.70;1.90;;;20.20;99.90;;;;;;5093807;28;20779;-71
2023/07/23 08:46:19;;;;;;;2.50;2.10;;;20.20;99.90;;;;;;5094901;28;20414;-70
2023/07/23 08:48:57;;;;;;;2.93;1.97;;;20.10;99.90;;;;;;5094932;28;20469;-70
2023/07/23 08:51:31;;;;;;;3.00;2.63;;;20.10;99.90;;;;;;5094664;28;20504;-69
2023/07/23 08:53:57;;;;;;;2.23;1.97;;;20.00;99.90;;;;;;5094794;28;20935;-69
2023/07/23 08:56:23;;;;;;;1.97;1.73;;;20.00;99.90;;;;;;5094588;28;20807;-70
2023/07/23 08:58:49;;;;;;;3.03;2.00;;;20.00;99.90;;;;;;5094651;28;20478;-69
2023/07/23 09:01:16;;;;;;;2.73;2.47;;;20.00;99.90;;;;;;5094439;28;20170;-69
2023/07/23 09:03:42;;;;;;;1.97;1.60;;;20.10;99.90;;;;;;5094428;28;20404;-71
2023/07/23 09:06:08;;;;;;;1.57;1.47;;;20.20;99.90;;;;;;5094093;28;20398;-71
2023/07/23 09:08:34;;;;;;;2.10;1.90;;;20.40;99.90;;;;;;5094389;28;20225;-70
2023/07/23 09:11:01;;;;;;;2.10;2.00;;;20.60;99.90;;;;;;5094006;28;20486;-70
2023/07/23 09:13:37;;;;;;;2.17;1.97;;;20.70;99.90;;;;;;5094216;28;20158;-70
2023/07/23 09:16:05;;;;;;;2.23;1.90;;;20.80;99.90;;;;;;5092477;28;20416;-69
2023/07/23 09:18:31;;;;;;;2.53;1.67;;;20.90;99.90;;;;;;5094126;28;20481;-71
2023/07/23 09:20:57;;;;;;;3.77;2.23;;;20.80;99.90;;;;;;5094226;28;20406;-69
2023/07/23 09:23:26;;;;;;;2.40;2.17;;;20.80;99.90;;;;;;5093985;28;20392;-69
2023/07/23 09:25:51;;;;;;;1.83;1.67;;;20.90;99.90;;;;;;5093714;28;20400;-70
2023/07/23 09:28:22;;;;;;;2.43;2.07;;;21.00;99.90;;;;;;5093743;28;20511;-69
2023/07/23 09:30:48;;;;;;;2.07;1.73;;;21.00;99.90;;;;;;5093693;28;20161;-70
2023/07/23 09:33:13;;;;;;;1.80;1.63;;;21.10;99.90;;;;;;5093612;28;20403;-69
2023/07/23 09:35:39;;;;;;;1.70;1.60;;;21.10;99.90;;;;;;5093066;28;20514;-69
2023/07/23 09:38:05;;;;;;;1.97;1.77;;;20.90;99.90;;;;;;5093576;28;20261;-70
2023/07/23 09:40:41;;;;;;;2.30;1.37;;;20.80;99.90;;;;;;5093865;28;20170;-70
2023/07/23 09:43:08;;;;;;;2.30;2.00;;;20.70;99.90;;;;;;5093762;28;20426;-71
2023/07/23 09:45:41;;;;;;;2.50;1.37;;;20.40;99.90;;;;;;5091948;28;20404;-70
2023/07/23 09:48:07;;;;;;;2.60;1.87;;;20.30;99.90;;;;;;5093333;28;20863;-71
2023/07/23 09:50:33;;;;;;;1.87;1.77;;;20.10;99.90;;;;;;5093856;28;20506;-71
2023/07/23 09:52:58;;;;;;;2.60;1.87;;;19.90;99.90;;;;;;5094115;28;20541;-72
2023/07/23 09:55:24;;;;;;;2.20;2.00;;;19.80;99.90;;;;;;5092438;28;20176;-70
2023/07/23 09:57:51;;;;;;;1.83;1.70;;;19.70;99.90;;;;;;5093327;28;20174;-70
2023/07/23 10:00:18;;;;;;;2.93;2.40;;;19.70;99.90;;;;;;5093360;28;20907;-71
2023/07/23 10:02:47;;;;;;;2.70;2.50;;;19.70;99.90;;;;;;5092138;28;20835;-71
2023/07/23 10:05:15;;;;;;;3.23;2.03;;;19.80;99.90;;;;;;5093222;28;20410;-71
2023/07/23 10:07:41;;;;;;;2.50;2.30;;;19.90;99.90;;;;;;5091879;28;20435;-70
2023/07/23 10:10:07;;;;;;;2.47;2.27;;;20.00;99.90;;;;;;5093217;28;20787;-71
2023/07/23 10:12:33;;;;;;;2.40;2.20;;;20.00;99.90;;;;;;5093155;28;20247;-71
2023/07/23 10:15:01;;;;;;;2.13;1.60;;;20.10;99.90;;;;;;5092998;28;20518;-70
2023/07/23 10:17:28;;;;;;;2.30;2.10;;;20.30;99.90;;;;;;5093049;28;20477;-69
2023/07/23 10:19:56;;;;;;;2.30;2.00;;;20.40;99.90;;;;;;5093101;28;20833;-68
2023/07/23 10:22:23;;;;;;;1.80;1.53;;;20.70;99.90;;;;;;5092448;28;20505;-68
2023/07/23 10:24:52;;;;;;;2.47;2.27;;;20.90;99.90;;;;;;5092396;28;20407;-68
2023/07/23 10:27:18;;;;;;;2.10;1.90;;;21.00;99.90;;;;;;5092040;28;20457;-68
2023/07/23 10:30:14;;;;;;;2.70;1.60;;;21.00;99.90;;;;;;5092271;28;20920;-69
2023/07/23 10:32:40;;;;;;;1.73;1.60;;;21.10;99.90;;;;;;5092366;28;20197;-68
2023/07/23 10:35:05;;;;;;;2.00;1.50;;;21.30;99.90;;;;;;5092110;28;20741;-70
2023/07/23 10:37:31;;;;;;;4.13;1.77;;;21.40;99.90;;;;;;5093034;28;20695;-70
2023/07/23 10:40:00;;;;;;;2.00;1.80;;;21.40;99.90;;;;;;5092339;28;20238;-69
2023/07/23 10:42:33;;;;;;;1.60;1.50;;;21.40;99.90;;;;;;5092618;28;20174;-70
2023/07/23 10:45:16;;;;;;;2.00;1.80;;;21.40;99.90;;;;;;5092117;28;20431;-69
2023/07/23 10:47:50;;;;;;;3.73;1.83;;;21.40;99.90;;;;;;5091585;28;20431;-71
2023/07/23 10:50:17;;;;;;;2.03;1.70;;;21.30;99.90;;;;;;5092155;28;20395;-69
2023/07/23 10:52:44;;;;;;;2.20;2.00;;;21.20;99.90;;;;;;5092044;28;20455;-69
2023/07/23 10:55:10;;;;;;;1.70;1.60;;;21.20;99.90;;;;;;5091881;28;20483;-68
2023/07/23 10:57:41;;;;;;;2.60;1.70;;;21.00;99.90;;;;;;5092296;28;20439;-69
2023/07/23 11:00:27;;;;;;;2.60;2.40;;;21.00;99.90;;;;;;5091904;28;20189;-71
2023/07/23 11:02:53;;;;;;;4.30;1.90;;;20.90;99.90;;;;;;5091865;28;20419;-71
2023/07/23 11:05:21;;;;;;;3.13;2.30;;;20.90;99.90;;;;;;5091469;28;20449;-71
2023/07/23 11:08:15;;;;;;;2.30;1.90;;;20.90;99.90;;;;;;5092695;28;20415;-71
2023/07/23 11:10:55;;;;;;;3.10;2.10;;;21.00;99.90;;;;;;5092214;28;20395;-71
2023/07/23 11:13:23;;;;;;;3.30;1.97;;;21.10;99.90;;;;;;5092090;28;20461;-70
2023/07/23 11:15:49;;;;;;;3.03;2.33;;;21.20;99.90;;;;;;5091940;28;20387;-68
2023/07/23 11:18:15;;;;;;;1.73;1.63;;;21.40;99.90;;;;;;5092053;28;20483;-70
2023/07/23 11:20:48;;;;;;;1.87;1.63;;;21.40;99.90;;;;;;5092260;28;20392;-72
2023/07/23 11:23:15;;;;;;;2.03;1.73;;;21.40;99.90;;;;;;5091939;28;20947;-68
2023/07/23 11:25:41;;;;;;;1.57;1.47;;;21.20;99.90;;;;;;5091566;28;20400;-68
2023/07/23 11:28:07;;;;;;;1.70;1.60;;;21.30;99.90;;;;;;5091727;28;20966;-68
2023/07/23 11:30:33;;;;;;;1.70;1.60;;;21.30;99.90;;;;;;5091991;28;20760;-70
2023/07/23 11:32:59;;;;;;;2.03;1.47;;;21.40;99.90;;;;;;5091833;28;20504;-69
2023/07/23 11:35:25;;;;;;;5.00;1.50;;;21.30;99.90;;;;;;5091483;28;20169;-72
2023/07/23 11:37:50;;;;;;;1.43;1.33;;;21.30;99.90;;;;;;5091745;28;20418;-68
2023/07/23 11:40:23;;;;;;;1.40;1.30;;;21.30;99.90;;;;;;5091751;28;20251;-70
2023/07/23 11:42:49;;;;;;;2.00;1.80;;;21.20;99.90;;;;;;5091884;28;20169;-69
2023/07/23 11:45:14;;;;;;;1.93;1.83;;;21.10;99.90;;;;;;5091351;28;20411;-70
2023/07/23 11:47:53;;;;;;;1.30;1.20;;;21.00;99.90;;;;;;5091865;28;20168;-67
2023/07/23 11:50:20;;;;;;;1.57;1.47;;;21.00;99.90;;;;;;5091639;28;20165;-71
2023/07/23 11:52:47;;;;;;;1.43;1.10;;;21.00;99.90;;;;;;5091721;28;20443;-69
2023/07/23 11:55:22;;;;;;;4.03;2.13;;;20.90;99.90;;;;;;5091455;28;20480;-69
2023/07/23 11:57:55;;;;;;;1.53;1.13;;;21.00;99.90;;;;;;5093064;28;20398;-68
2023/07/23 12:00:35;;;;;;;1.30;1.20;;;21.10;99.90;;;;;;5094367;28;20958;-70
2023/07/23 12:03:02;;;;;;;1.40;1.17;;;21.30;99.90;;;;;;5095207;28;20380;-71
2023/07/23 12:05:28;;;;;;;1.77;1.43;;;21.40;99.90;;;;;;5095444;28;20396;-72
2023/07/23 12:07:54;;;;;;;2.07;1.23;;;21.40;99.90;;;;;;5095545;28;20430;-71
2023/07/23 12:10:20;;;;;;;1.80;1.47;;;21.60;99.90;;;;;;5094996;28;20172;-70
2023/07/23 12:12:48;;;;;;;2.30;1.60;;;21.70;99.90;;;;;;5094899;28;20197;-70
2023/07/23 12:15:16;;;;;;;1.00;0.90;;;21.80;99.90;;;;;;5094511;28;20185;-68
2023/07/23 12:17:42;;;;;;;3.03;1.37;;;21.90;99.90;;;;;;5095014;28;20396;-70
2023/07/23 12:20:09;;;;;;;1.33;1.00;;;22.00;99.90;;;;;;5094681;28;20981;-71
2023/07/23 12:22:51;;;;;;;1.83;1.00;;;22.00;99.90;;;;;;5095028;28;20411;-68
2023/07/23 12:25:17;;;;;;;1.83;1.10;;;22.10;99.90;;;;;;5094322;28;20434;-69
2023/07/23 12:27:42;;;;;;;1.43;1.33;;;22.10;99.90;;;;;;5095042;28;20400;-71
2023/07/23 12:30:08;;;;;;;1.20;1.03;;;22.10;99.90;;;;;;5094481;28;20246;-68
2023/07/23 12:32:34;;;;;;;2.67;1.33;;;22.30;99.90;;;;;;5094688;28;20684;-72
2023/07/23 12:35:00;;;;;;;1.47;1.27;;;22.40;99.90;;;;;;5094352;28;20215;-69
2023/07/23 12:37:25;;;;;;;1.50;1.30;;;22.50;99.90;;;;;;5094555;28;20166;-67
2023/07/23 12:39:54;;;;;;;1.40;0.97;;;22.50;99.90;;;;;;5094341;28;20261;-70
2023/07/23 12:42:20;;;;;;;1.50;1.23;;;22.60;99.90;;;;;;5094498;28;20639;-68
2023/07/23 12:44:46;;;;;;;1.20;0.90;;;22.80;99.90;;;;;;5094025;28;20400;-72